createdAt,value
2017-10-11T00:02:14.678Z,8.88
2017-10-11T00:05:25.436Z,7.50
2017-10-11T00:08:35.384Z,8.38
2017-10-11T00:11:45.323Z,11.35
2017-10-11T00:14:55.485Z,7.87
2017-10-11T00:18:05.396Z,8.07
2017-10-11T00:21:15.850Z,7.65
2017-10-11T00:24:26.331Z,8.68
2017-10-11T00:27:36.626Z,10.50
2017-10-11T00:30:46.638Z,8.73
2017-10-11T00:33:58.487Z,9.40
2017-10-11T00:37:08.300Z,8.07
2017-10-11T00:40:18.228Z,8.45
2017-10-11T00:43:28.210Z,8.15
2017-10-11T00:46:39.088Z,11.55
2017-10-11T00:49:49.563Z,7.12
2017-10-11T00:53:00.633Z,11.45
2017-10-11T00:56:10.505Z,7.80
2017-10-11T00:59:21.037Z,9.30
2017-10-11T01:02:32.013Z,9.70
2017-10-11T01:05:42.092Z,8.95
2017-10-11T01:08:52.843Z,8.50
2017-10-11T01:12:06.539Z,10.07
2017-10-11T01:15:17.235Z,8.93
2017-10-11T01:18:27.944Z,7.50
2017-10-11T01:21:38.252Z,11.55
2017-10-11T01:24:48.477Z,7.80
2017-10-11T01:27:58.467Z,9.75
2017-10-11T01:31:08.621Z,7.95
2017-10-11T01:34:19.283Z,9.60
2017-10-11T01:37:30.154Z,9.85
2017-10-11T01:40:40.238Z,9.82
2017-10-11T01:43:51.615Z,8.07
2017-10-11T01:47:01.965Z,9.95
2017-10-11T01:50:12.528Z,9.13
2017-10-11T01:53:22.913Z,9.80
2017-10-11T01:56:32.952Z,8.95
2017-10-11T01:59:44.664Z,10.10
2017-10-11T02:02:54.730Z,9.52
2017-10-11T02:06:04.594Z,8.38
2017-10-11T02:09:15.372Z,7.68
2017-10-11T02:12:26.034Z,7.57
2017-10-11T02:15:35.966Z,7.43
2017-10-11T02:18:45.961Z,9.43
2017-10-11T02:21:56.701Z,8.10
2017-10-11T02:25:07.042Z,6.75
2017-10-11T02:28:17.654Z,7.47
2017-10-11T02:31:27.473Z,8.43
2017-10-11T02:34:38.050Z,7.15
2017-10-11T02:37:48.815Z,6.82
2017-10-11T02:40:59.559Z,8.85
2017-10-11T02:44:10.351Z,7.05
2017-10-11T02:47:21.793Z,8.38
2017-10-11T02:50:31.834Z,7.70
2017-10-11T02:53:42.648Z,8.80
2017-10-11T02:56:53.426Z,8.00
2017-10-11T03:00:03.706Z,9.48
2017-10-11T03:03:13.649Z,8.95
2017-10-11T03:06:23.610Z,7.32
2017-10-11T03:09:34.378Z,9.40
2017-10-11T03:12:44.027Z,10.70
2017-10-11T03:15:54.062Z,7.80
2017-10-11T03:19:04.902Z,9.20
2017-10-11T03:22:14.844Z,9.23
2017-10-11T03:25:25.498Z,10.43
2017-10-11T03:28:37.096Z,10.40
2017-10-11T03:31:47.906Z,7.68
2017-10-11T03:34:59.243Z,9.23
2017-10-11T03:38:09.403Z,10.48
2017-10-11T03:41:20.067Z,8.88
2017-10-11T03:44:30.465Z,9.20
2017-10-11T03:47:40.435Z,11.65
2017-10-11T03:50:50.930Z,8.70
2017-10-11T03:54:01.099Z,8.68
2017-10-11T03:57:12.160Z,6.78
2017-10-11T04:00:22.339Z,10.00
2017-10-11T04:03:33.170Z,9.07
2017-10-11T04:06:44.057Z,9.57
2017-10-11T04:09:54.870Z,10.35
2017-10-11T04:13:04.890Z,8.93
2017-10-11T04:19:55.130Z,9.20
2017-10-11T04:23:05.742Z,8.15
2017-10-11T04:26:16.288Z,9.88
2017-10-11T04:29:36.754Z,10.32
2017-10-11T04:32:46.890Z,9.75
2017-10-11T04:35:57.859Z,10.48
2017-10-11T04:39:08.454Z,9.18
2017-10-11T04:42:18.453Z,12.27
2017-10-11T04:45:29.109Z,11.63
2017-10-11T04:48:39.450Z,10.20
2017-10-11T04:51:49.988Z,11.18
2017-10-11T04:55:00.478Z,8.95
2017-10-11T04:58:11.414Z,9.32
2017-10-11T05:01:21.702Z,7.20
2017-10-11T05:04:31.742Z,8.70
2017-10-11T05:07:43.312Z,11.82
2017-10-11T05:10:54.245Z,9.60
2017-10-11T05:14:05.777Z,11.90
2017-10-11T05:17:15.974Z,10.65
2017-10-11T05:20:26.850Z,7.35
2017-10-11T05:23:37.487Z,7.97
2017-10-11T05:26:48.149Z,7.90
2017-10-11T05:29:59.067Z,9.20
2017-10-11T05:33:09.733Z,9.55
2017-10-11T05:36:20.549Z,8.77
2017-10-11T05:39:30.685Z,8.63
2017-10-11T05:42:41.477Z,10.55
2017-10-11T05:45:51.386Z,13.23
2017-10-11T05:49:01.335Z,8.68
2017-10-11T05:52:11.209Z,8.73
2017-10-11T05:55:21.980Z,9.45
2017-10-11T05:58:31.887Z,7.25
2017-10-11T06:01:41.813Z,10.70
2017-10-11T06:04:52.504Z,11.18
2017-10-11T06:08:02.974Z,9.95
2017-10-11T06:11:12.923Z,9.90
2017-10-11T06:14:22.932Z,9.32
2017-10-11T06:17:33.598Z,10.45
2017-10-11T06:20:44.381Z,8.05
2017-10-11T06:23:55.196Z,9.68
2017-10-11T06:27:05.838Z,10.85
2017-10-11T06:30:17.074Z,12.77
2017-10-11T06:33:27.925Z,10.35
2017-10-11T06:36:37.983Z,10.20
2017-10-11T06:39:49.667Z,9.32
2017-10-11T06:43:00.023Z,10.52
2017-10-11T06:46:10.206Z,9.55
2017-10-11T06:49:20.063Z,11.40
2017-10-11T06:52:30.862Z,12.00
2017-10-11T06:55:40.648Z,7.70
2017-10-11T06:58:50.652Z,9.15
2017-10-11T07:02:00.734Z,10.20
2017-10-11T07:05:11.566Z,11.05
2017-10-11T07:08:22.083Z,13.60
2017-10-11T07:11:32.888Z,11.95
2017-10-11T07:14:43.192Z,9.60
2017-10-11T07:17:53.865Z,9.88
2017-10-11T07:21:05.131Z,6.35
2017-10-11T07:24:15.014Z,10.93
2017-10-11T07:27:24.759Z,7.78
2017-10-11T07:30:35.440Z,12.88
2017-10-11T07:33:45.445Z,8.23
2017-10-11T07:36:57.063Z,11.25
2017-10-11T07:40:07.371Z,10.27
2017-10-11T07:43:18.100Z,10.02
2017-10-11T07:46:28.625Z,11.93
2017-10-11T07:49:38.469Z,7.65
2017-10-11T07:52:49.478Z,9.00
2017-10-11T07:55:59.679Z,10.07
2017-10-11T07:59:11.362Z,10.18
2017-10-11T08:02:21.590Z,12.00
2017-10-11T08:05:33.138Z,13.13
2017-10-11T08:08:44.455Z,10.70
2017-10-11T08:11:55.112Z,9.18
2017-10-11T08:15:06.383Z,6.87
2017-10-11T08:18:17.836Z,5.55
2017-10-11T08:21:29.995Z,8.98
2017-10-11T08:24:41.196Z,8.02
2017-10-11T08:27:52.309Z,9.15
2017-10-11T08:31:02.293Z,10.85
2017-10-11T08:34:12.858Z,10.32
2017-10-11T08:37:23.533Z,8.95
2017-10-11T08:40:33.429Z,7.40
2017-10-11T08:43:43.378Z,9.68
2017-10-11T08:46:54.254Z,7.90
2017-10-11T08:50:04.936Z,18.52
2017-10-11T08:53:15.665Z,23.65
2017-10-11T08:56:25.851Z,29.12
2017-10-11T08:59:36.494Z,32.70
2017-10-11T09:02:47.530Z,11.07
2017-10-11T09:06:01.691Z,13.20
2017-10-11T09:09:22.122Z,10.77
2017-10-11T09:12:32.806Z,20.23
2017-10-11T09:15:43.609Z,16.92
2017-10-11T09:18:54.262Z,10.05
2017-10-11T09:22:05.754Z,9.20
2017-10-11T09:25:16.303Z,8.27
2017-10-11T09:28:26.845Z,5.90
2017-10-11T09:31:38.812Z,6.25
2017-10-11T09:34:50.576Z,5.10
2017-10-11T09:38:01.236Z,5.60
2017-10-11T09:41:12.748Z,5.68
2017-10-11T09:44:24.435Z,5.97
2017-10-11T09:47:35.793Z,4.12
2017-10-11T09:50:46.469Z,6.62
2017-10-11T09:53:56.455Z,6.72
2017-10-11T09:57:06.960Z,8.70
2017-10-11T10:00:17.626Z,7.12
2017-10-11T10:03:27.695Z,8.70
2017-10-11T10:06:37.639Z,8.68
2017-10-11T10:09:49.700Z,6.72
2017-10-11T10:13:02.334Z,7.95
2017-10-11T10:16:13.696Z,8.20
2017-10-11T10:19:24.077Z,5.72
2017-10-11T10:22:35.095Z,6.78
2017-10-11T10:25:46.324Z,7.45
2017-10-11T10:28:56.767Z,6.05
2017-10-11T10:32:07.509Z,6.20
2017-10-11T10:35:19.431Z,5.50
2017-10-11T10:38:31.016Z,6.45
2017-10-11T10:41:43.075Z,6.30
2017-10-11T10:44:55.135Z,5.40
2017-10-11T10:48:07.154Z,4.80
2017-10-11T10:51:19.095Z,7.10
2017-10-11T10:54:31.157Z,5.57
2017-10-11T10:57:43.049Z,6.93
2017-10-11T11:00:53.748Z,6.25
2017-10-11T11:04:04.385Z,6.57
2017-10-11T11:07:15.061Z,7.20
2017-10-11T11:10:24.997Z,5.28
2017-10-11T11:13:35.875Z,5.78
2017-10-11T11:16:45.775Z,5.37
2017-10-11T11:19:56.284Z,5.72
2017-10-11T11:23:06.653Z,6.70
2017-10-11T11:26:16.548Z,7.40
2017-10-11T11:29:26.541Z,9.32
2017-10-11T11:32:36.508Z,10.73
2017-10-11T11:35:46.436Z,7.78
2017-10-11T11:38:57.974Z,5.70
2017-10-11T11:42:08.057Z,3.90
2017-10-11T11:45:19.754Z,5.62
2017-10-11T11:48:31.294Z,5.25
2017-10-11T11:51:41.231Z,6.12
2017-10-11T11:54:51.983Z,4.00
2017-10-11T11:58:03.520Z,6.30
2017-10-11T12:01:14.967Z,5.90
2017-10-11T12:04:26.193Z,4.53
2017-10-11T12:07:36.390Z,3.60
2017-10-11T12:10:47.059Z,5.60
2017-10-11T12:13:58.520Z,4.43
2017-10-11T12:17:09.284Z,3.85
2017-10-11T12:20:25.902Z,6.18
2017-10-11T12:23:35.953Z,3.90
2017-10-11T12:26:46.829Z,3.53
2017-10-11T12:29:57.479Z,6.40
2017-10-11T12:33:07.411Z,3.85
2017-10-11T12:36:18.334Z,5.72
2017-10-11T12:39:29.785Z,3.85
2017-10-11T12:42:40.170Z,4.05
2017-10-11T12:45:49.990Z,4.80
2017-10-11T12:49:00.700Z,6.12
2017-10-11T12:52:11.512Z,4.70
2017-10-11T12:55:21.367Z,6.55
2017-10-11T12:58:31.014Z,6.15
2017-10-11T13:01:40.779Z,6.55
2017-10-11T13:04:51.400Z,5.80
2017-10-11T13:08:03.508Z,5.62
2017-10-11T13:11:15.425Z,5.35
2017-10-11T13:14:25.962Z,4.60
2017-10-11T13:17:36.764Z,4.70
2017-10-11T13:20:48.278Z,4.43
2017-10-11T13:23:59.640Z,4.93
2017-10-11T13:27:10.286Z,5.40
2017-10-11T13:30:21.131Z,5.05
2017-10-11T13:33:30.963Z,4.15
2017-10-11T13:36:41.433Z,3.90
2017-10-11T13:39:51.286Z,13.65
2017-10-11T13:43:01.416Z,4.00
2017-10-11T13:46:11.288Z,2.95
2017-10-11T13:49:21.366Z,4.32
2017-10-11T13:52:31.912Z,5.22
2017-10-11T13:55:42.875Z,4.25
2017-10-11T13:58:52.639Z,4.57
2017-10-11T14:02:02.538Z,4.50
2017-10-11T14:05:12.475Z,4.20
2017-10-11T14:08:22.398Z,5.20
2017-10-11T14:11:33.929Z,3.53
2017-10-11T14:14:44.281Z,3.10
2017-10-11T14:17:54.733Z,4.82
2017-10-11T14:21:04.826Z,4.90
2017-10-11T14:24:15.562Z,5.30
2017-10-11T14:27:26.155Z,5.18
2017-10-11T14:30:36.842Z,4.87
2017-10-11T14:33:48.202Z,4.25
2017-10-11T14:37:00.120Z,5.10
2017-10-11T14:40:11.980Z,4.50
2017-10-11T14:43:23.849Z,3.97
2017-10-11T14:46:35.870Z,5.05
2017-10-11T14:49:49.478Z,3.83
2017-10-11T14:53:01.058Z,3.70
2017-10-11T14:56:12.998Z,3.78
2017-10-11T14:59:24.926Z,4.43
2017-10-11T15:02:42.034Z,7.32
2017-10-11T15:05:56.493Z,5.03
2017-10-11T15:09:08.028Z,4.87
2017-10-11T15:12:19.989Z,5.03
2017-10-11T15:15:31.927Z,4.22
2017-10-11T15:18:43.912Z,5.22
2017-10-11T15:22:05.919Z,4.62
2017-10-11T15:25:17.552Z,3.53
2017-10-11T15:28:29.348Z,4.65
2017-10-11T15:31:41.292Z,4.47
2017-10-11T15:34:53.274Z,4.03
2017-10-11T15:38:05.141Z,4.00
2017-10-11T15:41:16.345Z,4.12
2017-10-11T15:44:29.028Z,4.00
2017-10-11T15:47:40.185Z,5.37
2017-10-11T15:50:52.126Z,5.70
2017-10-11T15:54:04.051Z,5.30
2017-10-11T15:57:15.981Z,3.83
2017-10-11T16:00:27.570Z,4.65
2017-10-11T16:03:39.575Z,5.15
2017-10-11T16:06:51.428Z,4.57
2017-10-11T16:10:03.017Z,3.72
2017-10-11T16:13:23.327Z,4.30
2017-10-11T16:16:36.909Z,3.25
2017-10-11T16:19:47.955Z,3.08
2017-10-11T16:23:02.797Z,4.05
2017-10-11T16:26:14.801Z,3.47
2017-10-11T16:29:26.543Z,3.75
2017-10-11T16:32:37.107Z,3.45
2017-10-11T16:35:48.918Z,4.93
2017-10-11T16:38:59.652Z,3.47
2017-10-11T16:42:10.523Z,3.92
2017-10-11T16:45:21.244Z,4.10
2017-10-11T16:48:31.210Z,2.87
2017-10-11T16:51:41.893Z,4.80
2017-10-11T16:54:51.791Z,5.78
2017-10-11T16:58:02.396Z,13.20
2017-10-11T17:01:12.365Z,5.00
2017-10-11T17:04:23.990Z,5.30
2017-10-11T17:07:35.787Z,4.18
2017-10-11T17:10:49.092Z,5.62
2017-10-11T17:14:00.597Z,4.75
2017-10-11T17:17:10.500Z,5.12
2017-10-11T17:20:20.200Z,4.90
2017-10-11T17:23:30.527Z,5.03
2017-10-11T17:26:43.209Z,4.20
2017-10-11T17:29:55.933Z,4.85
2017-10-11T17:33:06.487Z,4.97
2017-10-11T17:36:17.225Z,4.25
2017-10-11T17:39:27.230Z,5.45
2017-10-11T17:42:37.909Z,4.32
2017-10-11T17:45:49.024Z,5.00
2017-10-11T17:48:59.365Z,5.50
2017-10-11T17:52:09.240Z,4.15
2017-10-11T17:55:19.929Z,4.45
2017-10-11T17:58:29.854Z,5.55
2017-10-11T18:01:40.665Z,4.18
2017-10-11T18:04:51.364Z,5.47
2017-10-11T18:08:07.116Z,5.10
2017-10-11T18:11:16.955Z,4.72
2017-10-11T18:14:27.642Z,6.25
2017-10-11T18:17:37.592Z,4.65
2017-10-11T18:20:48.316Z,5.45
2017-10-11T18:23:59.157Z,4.93
2017-10-11T18:27:09.511Z,4.60
2017-10-11T18:30:20.630Z,4.90
2017-10-11T18:33:33.270Z,4.50
2017-10-11T18:36:43.610Z,4.82
2017-10-11T18:39:53.506Z,4.40
2017-10-11T18:43:03.296Z,4.30
2017-10-11T18:46:13.290Z,4.43
2017-10-11T18:49:23.298Z,4.07
2017-10-11T18:52:34.122Z,4.70
2017-10-11T18:55:44.065Z,3.45
2017-10-11T18:58:54.822Z,3.58
2017-10-11T19:02:04.495Z,5.22
2017-10-11T19:05:14.532Z,3.35
2017-10-11T19:08:25.306Z,6.40
2017-10-11T19:11:36.079Z,5.47
2017-10-11T19:14:46.987Z,4.80
2017-10-11T19:17:57.120Z,4.47
2017-10-11T19:21:06.965Z,3.53
2017-10-11T19:24:18.340Z,3.75
2017-10-11T19:27:28.517Z,4.47
2017-10-11T19:30:38.473Z,4.82
2017-10-11T19:33:49.308Z,4.62
2017-10-11T19:36:59.320Z,4.97
2017-10-11T19:40:10.613Z,6.93
2017-10-11T19:43:21.568Z,3.20
2017-10-11T19:46:31.728Z,4.35
2017-10-11T19:49:43.207Z,4.25
2017-10-11T19:52:53.127Z,4.82
2017-10-11T19:56:02.996Z,3.87
2017-10-11T19:59:13.549Z,4.90
2017-10-11T20:02:23.354Z,5.10
2017-10-11T20:05:33.239Z,4.10
2017-10-11T20:08:44.005Z,4.62
2017-10-11T20:11:54.833Z,5.35
2017-10-11T20:15:05.558Z,4.82
2017-10-11T20:18:15.262Z,5.18
2017-10-11T20:21:25.226Z,4.20
2017-10-11T20:24:35.951Z,4.22
2017-10-11T20:27:45.860Z,6.30
2017-10-11T20:30:56.652Z,5.25
2017-10-11T20:34:07.252Z,10.73
2017-10-11T20:37:17.415Z,7.18
2017-10-11T20:40:28.171Z,5.57
2017-10-11T20:43:39.198Z,3.97
2017-10-11T20:46:49.694Z,4.80
2017-10-11T20:49:59.768Z,4.47
2017-10-11T20:53:10.528Z,3.78
2017-10-11T20:56:20.461Z,4.00
2017-10-11T20:59:30.487Z,4.68
2017-10-11T21:02:41.132Z,4.35
2017-10-11T21:05:51.201Z,6.25
2017-10-11T21:09:01.739Z,3.75
2017-10-11T21:12:13.268Z,5.15
2017-10-11T21:15:23.221Z,3.70
2017-10-11T21:18:33.250Z,4.28
2017-10-11T21:21:43.920Z,3.78
2017-10-11T21:24:54.247Z,4.25
2017-10-11T21:28:04.940Z,5.50
2017-10-11T21:31:15.553Z,4.03
2017-10-11T21:34:25.683Z,4.45
2017-10-11T21:37:36.382Z,5.55
2017-10-11T21:40:47.468Z,4.30
2017-10-11T21:43:57.978Z,5.57
2017-10-11T21:47:08.848Z,3.80
2017-10-11T21:50:19.528Z,4.35
2017-10-11T21:53:30.592Z,4.00
2017-10-11T21:56:42.826Z,4.53
2017-10-11T21:59:56.439Z,4.15
2017-10-11T22:03:09.807Z,3.45
2017-10-11T22:06:23.072Z,4.10
2017-10-11T22:09:36.501Z,5.10
2017-10-11T22:12:51.253Z,6.93
2017-10-11T22:16:06.426Z,5.43
2017-10-11T22:22:39.437Z,5.22
2017-10-11T22:25:55.080Z,4.12
2017-10-11T22:29:12.963Z,5.87
2017-10-11T22:32:50.900Z,5.28
2017-10-11T22:36:01.801Z,4.97
2017-10-11T22:39:12.577Z,5.15
2017-10-11T22:42:22.453Z,6.07
2017-10-11T22:45:32.310Z,4.30
2017-10-11T22:48:42.482Z,5.40
2017-10-11T22:51:52.834Z,5.62
2017-10-11T22:55:02.737Z,6.18
2017-10-11T22:58:14.140Z,5.25
2017-10-11T23:01:24.252Z,4.35
2017-10-11T23:04:35.759Z,6.10
2017-10-11T23:07:45.766Z,4.22
2017-10-11T23:10:55.789Z,4.95
2017-10-11T23:14:07.409Z,4.50
2017-10-11T23:17:17.163Z,4.37
2017-10-11T23:20:26.938Z,4.82
2017-10-11T23:23:36.853Z,6.45
2017-10-11T23:26:47.683Z,4.57
2017-10-11T23:29:57.724Z,4.60
2017-10-11T23:33:08.425Z,4.00
2017-10-11T23:36:18.296Z,5.00
2017-10-11T23:39:29.018Z,4.53
2017-10-11T23:42:39.816Z,5.03
2017-10-11T23:45:50.509Z,4.37
2017-10-11T23:49:00.393Z,4.30
2017-10-11T23:52:10.410Z,5.35
2017-10-11T23:55:21.223Z,4.18
2017-10-11T23:58:31.169Z,4.47
